sensor_id;sensor_type;location;lat;lon;timestamp;P1;durP1;ratioP1;P2;durP2;ratioP2
78796;SDS011;68145;52.514;13.460;2023-04-16T00:02:13;24.15;;;16.98;;
78796;SDS011;68145;52.514;13.460;2023-04-16T00:04:40;25.23;;;16.27;;
78796;SDS011;68145;52.514;13.460;2023-04-16T00:07:06;23.15;;;17.17;;
78796;SDS011;68145;52.514;13.460;2023-04-16T00:09:32;28.92;;;18.52;;
78796;SDS011;68145;52.514;13.460;2023-04-16T00:11:58;32.45;;;19.38;;
78796;SDS011;68145;52.514;13.460;2023-04-16T00:14:24;25.40;;;16.90;;
78796;SDS011;68145;52.514;13.460;2023-04-16T00:16:50;26.15;;;17.02;;
78796;SDS011;68145;52.514;13.460;2023-04-16T00:19:16;27.75;;;17.58;;
78796;SDS011;68145;52.514;13.460;2023-04-16T00:21:42;24.77;;;16.70;;
78796;SDS011;68145;52.514;13.460;2023-04-16T00:24:08;28.98;;;18.02;;
78796;SDS011;68145;52.514;13.460;2023-04-16T00:26:35;24.40;;;16.08;;
78796;SDS011;68145;52.514;13.460;2023-04-16T00:29:01;25.75;;;17.65;;
78796;SDS011;68145;52.514;13.460;2023-04-16T00:31:27;25.75;;;16.95;;
78796;SDS011;68145;52.514;13.460;2023-04-16T00:33:54;23.67;;;16.58;;
78796;SDS011;68145;52.514;13.460;2023-04-16T00:36:20;26.42;;;17.85;;
78796;SDS011;68145;52.514;13.460;2023-04-16T00:38:46;25.67;;;16.23;;
78796;SDS011;68145;52.514;13.460;2023-04-16T00:41:12;25.20;;;17.55;;
78796;SDS011;68145;52.514;13.460;2023-04-16T00:43:38;26.15;;;18.27;;
78796;SDS011;68145;52.514;13.460;2023-04-16T00:46:04;25.75;;;16.73;;
78796;SDS011;68145;52.514;13.460;2023-04-16T00:48:31;25.30;;;17.10;;
78796;SDS011;68145;52.514;13.460;2023-04-16T00:50:57;26.50;;;17.98;;
78796;SDS011;68145;52.514;13.460;2023-04-16T00:53:25;26.25;;;17.63;;
78796;SDS011;68145;52.514;13.460;2023-04-16T00:55:51;25.08;;;16.52;;
78796;SDS011;68145;52.514;13.460;2023-04-16T00:58:17;25.60;;;16.92;;
78796;SDS011;68145;52.514;13.460;2023-04-16T01:00:43;26.77;;;18.00;;
78796;SDS011;68145;52.514;13.460;2023-04-16T01:03:09;25.83;;;18.13;;
78796;SDS011;68145;52.514;13.460;2023-04-16T01:05:35;26.83;;;18.67;;
78796;SDS011;68145;52.514;13.460;2023-04-16T01:08:01;29.08;;;17.63;;
78796;SDS011;68145;52.514;13.460;2023-04-16T01:10:27;26.90;;;18.17;;
78796;SDS011;68145;52.514;13.460;2023-04-16T01:12:53;27.35;;;19.33;;
78796;SDS011;68145;52.514;13.460;2023-04-16T01:15:19;28.55;;;19.20;;
78796;SDS011;68145;52.514;13.460;2023-04-16T01:17:45;29.45;;;19.25;;
78796;SDS011;68145;52.514;13.460;2023-04-16T01:20:11;23.92;;;17.75;;
78796;SDS011;68145;52.514;13.460;2023-04-16T01:22:38;24.95;;;17.25;;
78796;SDS011;68145;52.514;13.460;2023-04-16T01:25:04;27.77;;;18.98;;
78796;SDS011;68145;52.514;13.460;2023-04-16T01:27:30;26.48;;;18.25;;
78796;SDS011;68145;52.514;13.460;2023-04-16T01:29:56;28.67;;;19.63;;
78796;SDS011;68145;52.514;13.460;2023-04-16T01:32:22;30.80;;;18.63;;
78796;SDS011;68145;52.514;13.460;2023-04-16T01:34:48;29.20;;;18.77;;
78796;SDS011;68145;52.514;13.460;2023-04-16T01:37:14;27.85;;;18.63;;
78796;SDS011;68145;52.514;13.460;2023-04-16T01:39:41;26.27;;;17.55;;
78796;SDS011;68145;52.514;13.460;2023-04-16T01:42:07;27.42;;;18.27;;
78796;SDS011;68145;52.514;13.460;2023-04-16T01:44:33;29.52;;;19.50;;
78796;SDS011;68145;52.514;13.460;2023-04-16T01:46:59;27.25;;;18.55;;
78796;SDS011;68145;52.514;13.460;2023-04-16T01:49:25;28.00;;;18.30;;
78796;SDS011;68145;52.514;13.460;2023-04-16T01:51:51;27.10;;;18.10;;
78796;SDS011;68145;52.514;13.460;2023-04-16T01:54:17;27.10;;;19.00;;
78796;SDS011;68145;52.514;13.460;2023-04-16T01:56:43;27.60;;;17.52;;
78796;SDS011;68145;52.514;13.460;2023-04-16T01:59:09;26.27;;;17.45;;
78796;SDS011;68145;52.514;13.460;2023-04-16T02:01:36;28.08;;;17.55;;
78796;SDS011;68145;52.514;13.460;2023-04-16T02:04:02;27.42;;;18.13;;
78796;SDS011;68145;52.514;13.460;2023-04-16T02:06:29;25.20;;;17.48;;
78796;SDS011;68145;52.514;13.460;2023-04-16T02:08:55;24.10;;;17.25;;
78796;SDS011;68145;52.514;13.460;2023-04-16T02:11:21;26.52;;;17.35;;
78796;SDS011;68145;52.514;13.460;2023-04-16T02:13:47;27.85;;;17.80;;
78796;SDS011;68145;52.514;13.460;2023-04-16T02:16:13;25.92;;;18.45;;
78796;SDS011;68145;52.514;13.460;2023-04-16T02:18:39;28.92;;;18.90;;
78796;SDS011;68145;52.514;13.460;2023-04-16T02:21:05;29.85;;;20.13;;
78796;SDS011;68145;52.514;13.460;2023-04-16T02:23:31;22.70;;;16.48;;
78796;SDS011;68145;52.514;13.460;2023-04-16T02:25:57;27.17;;;16.50;;
78796;SDS011;68145;52.514;13.460;2023-04-16T02:28:25;25.20;;;17.40;;
78796;SDS011;68145;52.514;13.460;2023-04-16T02:30:51;23.27;;;16.33;;
78796;SDS011;68145;52.514;13.460;2023-04-16T02:33:17;25.42;;;17.63;;
78796;SDS011;68145;52.514;13.460;2023-04-16T02:35:44;24.25;;;16.23;;
78796;SDS011;68145;52.514;13.460;2023-04-16T02:38:12;24.90;;;16.75;;
78796;SDS011;68145;52.514;13.460;2023-04-16T02:40:38;27.23;;;17.67;;
78796;SDS011;68145;52.514;13.460;2023-04-16T02:43:04;25.33;;;16.92;;
78796;SDS011;68145;52.514;13.460;2023-04-16T02:45:31;26.55;;;17.13;;
78796;SDS011;68145;52.514;13.460;2023-04-16T02:47:57;25.70;;;16.77;;
78796;SDS011;68145;52.514;13.460;2023-04-16T02:50:23;25.13;;;16.33;;
78796;SDS011;68145;52.514;13.460;2023-04-16T02:52:49;26.17;;;17.20;;
78796;SDS011;68145;52.514;13.460;2023-04-16T02:55:15;24.60;;;17.02;;
78796;SDS011;68145;52.514;13.460;2023-04-16T02:57:41;25.58;;;16.70;;
78796;SDS011;68145;52.514;13.460;2023-04-16T03:00:08;27.88;;;17.90;;
78796;SDS011;68145;52.514;13.460;2023-04-16T03:02:34;25.25;;;18.13;;
78796;SDS011;68145;52.514;13.460;2023-04-16T03:05:00;26.92;;;18.10;;
78796;SDS011;68145;52.514;13.460;2023-04-16T03:07:26;27.67;;;17.60;;
78796;SDS011;68145;52.514;13.460;2023-04-16T03:09:52;26.30;;;18.23;;
78796;SDS011;68145;52.514;13.460;2023-04-16T03:12:18;28.13;;;18.85;;
78796;SDS011;68145;52.514;13.460;2023-04-16T03:14:44;30.35;;;20.23;;
78796;SDS011;68145;52.514;13.460;2023-04-16T03:17:10;32.15;;;19.98;;
78796;SDS011;68145;52.514;13.460;2023-04-16T03:19:36;28.13;;;19.30;;
78796;SDS011;68145;52.514;13.460;2023-04-16T03:22:03;34.25;;;21.40;;
78796;SDS011;68145;52.514;13.460;2023-04-16T03:24:29;34.20;;;20.65;;
78796;SDS011;68145;52.514;13.460;2023-04-16T03:26:56;30.05;;;18.80;;
78796;SDS011;68145;52.514;13.460;2023-04-16T03:29:22;32.72;;;20.85;;
78796;SDS011;68145;52.514;13.460;2023-04-16T03:31:49;33.13;;;20.55;;
78796;SDS011;68145;52.514;13.460;2023-04-16T03:34:15;33.15;;;20.33;;
78796;SDS011;68145;52.514;13.460;2023-04-16T03:36:41;34.42;;;19.83;;
78796;SDS011;68145;52.514;13.460;2023-04-16T03:39:07;30.63;;;20.08;;
78796;SDS011;68145;52.514;13.460;2023-04-16T03:41:33;37.42;;;22.00;;
78796;SDS011;68145;52.514;13.460;2023-04-16T03:43:59;34.00;;;20.60;;
78796;SDS011;68145;52.514;13.460;2023-04-16T03:46:25;36.55;;;21.35;;
78796;SDS011;68145;52.514;13.460;2023-04-16T03:48:51;31.48;;;20.27;;
78796;SDS011;68145;52.514;13.460;2023-04-16T03:51:17;35.15;;;20.92;;
78796;SDS011;68145;52.514;13.460;2023-04-16T03:53:43;34.20;;;19.70;;
78796;SDS011;68145;52.514;13.460;2023-04-16T03:56:09;33.47;;;20.08;;
78796;SDS011;68145;52.514;13.460;2023-04-16T03:58:35;33.25;;;19.27;;
78796;SDS011;68145;52.514;13.460;2023-04-16T04:01:01;34.58;;;21.27;;
78796;SDS011;68145;52.514;13.460;2023-04-16T04:03:27;39.20;;;20.27;;
78796;SDS011;68145;52.514;13.460;2023-04-16T04:05:53;34.05;;;19.60;;
78796;SDS011;68145;52.514;13.460;2023-04-16T04:08:19;36.33;;;20.48;;
78796;SDS011;68145;52.514;13.460;2023-04-16T04:10:45;33.30;;;20.48;;
78796;SDS011;68145;52.514;13.460;2023-04-16T04:13:11;35.35;;;21.25;;
78796;SDS011;68145;52.514;13.460;2023-04-16T04:15:37;33.92;;;20.08;;
78796;SDS011;68145;52.514;13.460;2023-04-16T04:18:03;35.30;;;21.13;;
78796;SDS011;68145;52.514;13.460;2023-04-16T04:20:29;34.45;;;19.58;;
78796;SDS011;68145;52.514;13.460;2023-04-16T04:22:56;33.22;;;18.95;;
78796;SDS011;68145;52.514;13.460;2023-04-16T04:25:22;37.63;;;20.65;;
78796;SDS011;68145;52.514;13.460;2023-04-16T04:27:48;33.08;;;19.67;;
78796;SDS011;68145;52.514;13.460;2023-04-16T04:30:14;38.92;;;20.88;;
78796;SDS011;68145;52.514;13.460;2023-04-16T04:32:40;34.47;;;20.95;;
78796;SDS011;68145;52.514;13.460;2023-04-16T04:35:06;30.92;;;19.05;;
78796;SDS011;68145;52.514;13.460;2023-04-16T04:37:32;38.70;;;20.75;;
78796;SDS011;68145;52.514;13.460;2023-04-16T04:39:58;32.88;;;19.60;;
78796;SDS011;68145;52.514;13.460;2023-04-16T04:42:24;35.35;;;20.50;;
78796;SDS011;68145;52.514;13.460;2023-04-16T04:44:51;31.33;;;19.77;;
78796;SDS011;68145;52.514;13.460;2023-04-16T04:47:17;30.95;;;18.75;;
78796;SDS011;68145;52.514;13.460;2023-04-16T04:49:43;32.20;;;18.50;;
78796;SDS011;68145;52.514;13.460;2023-04-16T04:52:09;34.38;;;19.13;;
78796;SDS011;68145;52.514;13.460;2023-04-16T04:54:35;37.33;;;21.08;;
78796;SDS011;68145;52.514;13.460;2023-04-16T04:57:05;32.65;;;19.50;;
78796;SDS011;68145;52.514;13.460;2023-04-16T04:59:31;32.95;;;20.30;;
78796;SDS011;68145;52.514;13.460;2023-04-16T05:01:57;37.33;;;20.33;;
78796;SDS011;68145;52.514;13.460;2023-04-16T05:04:23;30.73;;;18.95;;
78796;SDS011;68145;52.514;13.460;2023-04-16T05:06:49;38.28;;;19.58;;
78796;SDS011;68145;52.514;13.460;2023-04-16T05:09:15;35.42;;;20.25;;
78796;SDS011;68145;52.514;13.460;2023-04-16T05:11:41;34.42;;;19.98;;
78796;SDS011;68145;52.514;13.460;2023-04-16T05:14:07;36.15;;;20.80;;
78796;SDS011;68145;52.514;13.460;2023-04-16T05:16:34;30.92;;;18.30;;
78796;SDS011;68145;52.514;13.460;2023-04-16T05:19:01;32.88;;;20.25;;
78796;SDS011;68145;52.514;13.460;2023-04-16T05:21:27;36.13;;;20.50;;
78796;SDS011;68145;52.514;13.460;2023-04-16T05:23:53;32.22;;;19.10;;
78796;SDS011;68145;52.514;13.460;2023-04-16T05:26:19;33.78;;;19.38;;
78796;SDS011;68145;52.514;13.460;2023-04-16T05:28:45;32.65;;;18.42;;
78796;SDS011;68145;52.514;13.460;2023-04-16T05:31:11;33.92;;;18.45;;
78796;SDS011;68145;52.514;13.460;2023-04-16T05:33:37;32.60;;;19.83;;
78796;SDS011;68145;52.514;13.460;2023-04-16T05:36:03;31.10;;;17.90;;
78796;SDS011;68145;52.514;13.460;2023-04-16T05:38:29;31.55;;;18.58;;
78796;SDS011;68145;52.514;13.460;2023-04-16T05:40:56;34.70;;;19.25;;
78796;SDS011;68145;52.514;13.460;2023-04-16T05:43:23;36.95;;;20.65;;
78796;SDS011;68145;52.514;13.460;2023-04-16T05:45:49;32.80;;;18.10;;
78796;SDS011;68145;52.514;13.460;2023-04-16T05:48:15;34.35;;;18.40;;
78796;SDS011;68145;52.514;13.460;2023-04-16T05:50:50;29.38;;;18.38;;
78796;SDS011;68145;52.514;13.460;2023-04-16T05:53:16;34.28;;;18.70;;
78796;SDS011;68145;52.514;13.460;2023-04-16T05:55:50;29.92;;;17.63;;
78796;SDS011;68145;52.514;13.460;2023-04-16T05:58:16;35.55;;;17.50;;
78796;SDS011;68145;52.514;13.460;2023-04-16T06:00:45;32.13;;;17.52;;
78796;SDS011;68145;52.514;13.460;2023-04-16T06:03:11;31.98;;;17.50;;
78796;SDS011;68145;52.514;13.460;2023-04-16T06:05:37;28.77;;;17.30;;
78796;SDS011;68145;52.514;13.460;2023-04-16T06:08:03;30.55;;;17.98;;
78796;SDS011;68145;52.514;13.460;2023-04-16T06:10:30;31.35;;;17.70;;
78796;SDS011;68145;52.514;13.460;2023-04-16T06:13:05;31.15;;;18.20;;
78796;SDS011;68145;52.514;13.460;2023-04-16T06:15:31;29.63;;;16.27;;
78796;SDS011;68145;52.514;13.460;2023-04-16T06:17:57;26.35;;;16.13;;
78796;SDS011;68145;52.514;13.460;2023-04-16T06:20:23;30.33;;;17.17;;
78796;SDS011;68145;52.514;13.460;2023-04-16T06:22:53;30.50;;;17.58;;
78796;SDS011;68145;52.514;13.460;2023-04-16T06:25:29;41.40;;;19.27;;
78796;SDS011;68145;52.514;13.460;2023-04-16T06:27:55;28.98;;;16.55;;
78796;SDS011;68145;52.514;13.460;2023-04-16T06:30:24;27.67;;;16.70;;
78796;SDS011;68145;52.514;13.460;2023-04-16T06:32:51;31.10;;;16.70;;
78796;SDS011;68145;52.514;13.460;2023-04-16T06:35:17;34.88;;;16.83;;
78796;SDS011;68145;52.514;13.460;2023-04-16T06:37:44;29.75;;;15.43;;
78796;SDS011;68145;52.514;13.460;2023-04-16T06:40:11;29.90;;;17.50;;
78796;SDS011;68145;52.514;13.460;2023-04-16T06:42:37;30.02;;;17.33;;
78796;SDS011;68145;52.514;13.460;2023-04-16T06:45:03;29.33;;;16.98;;
78796;SDS011;68145;52.514;13.460;2023-04-16T06:47:29;29.50;;;16.02;;
78796;SDS011;68145;52.514;13.460;2023-04-16T06:49:56;28.05;;;16.40;;
78796;SDS011;68145;52.514;13.460;2023-04-16T06:52:22;30.83;;;17.92;;
78796;SDS011;68145;52.514;13.460;2023-04-16T06:54:49;27.88;;;16.50;;
78796;SDS011;68145;52.514;13.460;2023-04-16T06:57:15;28.92;;;16.65;;
78796;SDS011;68145;52.514;13.460;2023-04-16T06:59:41;29.20;;;15.43;;
78796;SDS011;68145;52.514;13.460;2023-04-16T07:02:08;28.95;;;16.75;;
78796;SDS011;68145;52.514;13.460;2023-04-16T07:04:34;27.92;;;16.58;;
78796;SDS011;68145;52.514;13.460;2023-04-16T07:07:00;28.92;;;17.48;;
78796;SDS011;68145;52.514;13.460;2023-04-16T07:09:26;27.10;;;17.77;;
78796;SDS011;68145;52.514;13.460;2023-04-16T07:11:53;24.77;;;15.32;;
78796;SDS011;68145;52.514;13.460;2023-04-16T07:14:19;24.35;;;16.05;;
78796;SDS011;68145;52.514;13.460;2023-04-16T07:16:45;27.88;;;15.63;;
78796;SDS011;68145;52.514;13.460;2023-04-16T07:19:11;26.70;;;15.45;;
78796;SDS011;68145;52.514;13.460;2023-04-16T07:21:41;28.60;;;16.70;;
78796;SDS011;68145;52.514;13.460;2023-04-16T07:24:08;29.02;;;16.73;;
78796;SDS011;68145;52.514;13.460;2023-04-16T07:26:35;28.85;;;16.75;;
78796;SDS011;68145;52.514;13.460;2023-04-16T07:29:01;25.88;;;16.13;;
78796;SDS011;68145;52.514;13.460;2023-04-16T07:31:27;28.17;;;16.33;;
78796;SDS011;68145;52.514;13.460;2023-04-16T07:33:53;26.35;;;15.73;;
78796;SDS011;68145;52.514;13.460;2023-04-16T07:36:19;30.80;;;16.48;;
78796;SDS011;68145;52.514;13.460;2023-04-16T07:38:47;27.35;;;16.50;;
78796;SDS011;68145;52.514;13.460;2023-04-16T07:41:13;26.40;;;14.73;;
78796;SDS011;68145;52.514;13.460;2023-04-16T07:43:39;25.15;;;15.38;;
78796;SDS011;68145;52.514;13.460;2023-04-16T07:46:05;24.00;;;14.43;;
78796;SDS011;68145;52.514;13.460;2023-04-16T07:48:31;27.13;;;16.48;;
78796;SDS011;68145;52.514;13.460;2023-04-16T07:50:57;26.73;;;16.27;;
78796;SDS011;68145;52.514;13.460;2023-04-16T07:53:23;23.58;;;15.05;;
78796;SDS011;68145;52.514;13.460;2023-04-16T07:55:50;28.23;;;15.70;;
78796;SDS011;68145;52.514;13.460;2023-04-16T07:58:16;29.33;;;15.68;;
78796;SDS011;68145;52.514;13.460;2023-04-16T08:00:42;26.65;;;15.85;;
78796;SDS011;68145;52.514;13.460;2023-04-16T08:03:08;27.23;;;16.75;;
78796;SDS011;68145;52.514;13.460;2023-04-16T08:05:34;28.77;;;16.17;;
78796;SDS011;68145;52.514;13.460;2023-04-16T08:08:00;22.52;;;14.18;;
78796;SDS011;68145;52.514;13.460;2023-04-16T08:10:26;26.48;;;15.38;;
78796;SDS011;68145;52.514;13.460;2023-04-16T08:12:53;25.40;;;14.23;;
78796;SDS011;68145;52.514;13.460;2023-04-16T08:15:22;27.58;;;16.20;;
78796;SDS011;68145;52.514;13.460;2023-04-16T08:17:51;25.60;;;15.00;;
78796;SDS011;68145;52.514;13.460;2023-04-16T08:20:17;26.15;;;15.38;;
78796;SDS011;68145;52.514;13.460;2023-04-16T08:22:44;24.35;;;14.40;;
78796;SDS011;68145;52.514;13.460;2023-04-16T08:25:10;26.58;;;15.23;;
78796;SDS011;68145;52.514;13.460;2023-04-16T08:27:36;27.90;;;15.50;;
78796;SDS011;68145;52.514;13.460;2023-04-16T08:30:03;26.45;;;14.82;;
78796;SDS011;68145;52.514;13.460;2023-04-16T08:32:29;25.95;;;15.68;;
78796;SDS011;68145;52.514;13.460;2023-04-16T08:34:56;25.77;;;15.30;;
78796;SDS011;68145;52.514;13.460;2023-04-16T08:37:22;29.60;;;16.80;;
78796;SDS011;68145;52.514;13.460;2023-04-16T08:39:48;29.25;;;17.10;;
78796;SDS011;68145;52.514;13.460;2023-04-16T08:42:28;24.23;;;13.15;;
78796;SDS011;68145;52.514;13.460;2023-04-16T08:45:05;26.80;;;16.10;;
78796;SDS011;68145;52.514;13.460;2023-04-16T08:47:33;27.38;;;15.82;;
78796;SDS011;68145;52.514;13.460;2023-04-16T08:49:59;27.90;;;15.77;;
78796;SDS011;68145;52.514;13.460;2023-04-16T08:52:25;23.40;;;14.55;;
78796;SDS011;68145;52.514;13.460;2023-04-16T08:57:29;28.42;;;16.00;;
78796;SDS011;68145;52.514;13.460;2023-04-16T08:59:55;24.88;;;15.35;;
78796;SDS011;68145;52.514;13.460;2023-04-16T09:02:22;30.02;;;16.65;;
78796;SDS011;68145;52.514;13.460;2023-04-16T09:04:50;32.25;;;17.98;;
78796;SDS011;68145;52.514;13.460;2023-04-16T09:07:18;29.05;;;16.25;;
78796;SDS011;68145;52.514;13.460;2023-04-16T09:09:44;26.67;;;15.82;;
78796;SDS011;68145;52.514;13.460;2023-04-16T09:12:11;27.90;;;16.13;;
78796;SDS011;68145;52.514;13.460;2023-04-16T09:14:37;25.02;;;15.30;;
78796;SDS011;68145;52.514;13.460;2023-04-16T09:17:05;35.38;;;19.60;;
78796;SDS011;68145;52.514;13.460;2023-04-16T09:19:32;24.33;;;15.40;;
78796;SDS011;68145;52.514;13.460;2023-04-16T09:22:00;30.13;;;16.75;;
78796;SDS011;68145;52.514;13.460;2023-04-16T09:24:27;27.70;;;15.05;;
78796;SDS011;68145;52.514;13.460;2023-04-16T09:26:53;25.05;;;15.55;;
78796;SDS011;68145;52.514;13.460;2023-04-16T09:29:34;25.65;;;14.68;;
78796;SDS011;68145;52.514;13.460;2023-04-16T09:32:01;25.85;;;14.85;;
78796;SDS011;68145;52.514;13.460;2023-04-16T09:34:28;22.92;;;13.88;;
78796;SDS011;68145;52.514;13.460;2023-04-16T09:37:13;21.70;;;13.93;;
78796;SDS011;68145;52.514;13.460;2023-04-16T09:39:41;21.52;;;13.18;;
78796;SDS011;68145;52.514;13.460;2023-04-16T09:42:07;24.33;;;14.07;;
78796;SDS011;68145;52.514;13.460;2023-04-16T09:44:34;21.35;;;13.52;;
78796;SDS011;68145;52.514;13.460;2023-04-16T09:47:06;22.25;;;14.05;;
78796;SDS011;68145;52.514;13.460;2023-04-16T09:49:33;24.27;;;14.63;;
78796;SDS011;68145;52.514;13.460;2023-04-16T09:52:03;23.50;;;14.32;;
78796;SDS011;68145;52.514;13.460;2023-04-16T09:54:34;28.40;;;16.38;;
78796;SDS011;68145;52.514;13.460;2023-04-16T09:57:00;23.42;;;14.85;;
78796;SDS011;68145;52.514;13.460;2023-04-16T09:59:26;23.33;;;14.27;;
78796;SDS011;68145;52.514;13.460;2023-04-16T10:01:59;21.27;;;13.80;;
78796;SDS011;68145;52.514;13.460;2023-04-16T10:04:25;22.92;;;14.35;;
78796;SDS011;68145;52.514;13.460;2023-04-16T10:07:04;22.13;;;13.80;;
78796;SDS011;68145;52.514;13.460;2023-04-16T10:09:31;21.60;;;14.23;;
78796;SDS011;68145;52.514;13.460;2023-04-16T10:11:57;22.05;;;14.60;;
78796;SDS011;68145;52.514;13.460;2023-04-16T10:14:24;26.75;;;15.65;;
78796;SDS011;68145;52.514;13.460;2023-04-16T10:16:50;20.25;;;13.85;;
78796;SDS011;68145;52.514;13.460;2023-04-16T10:19:16;25.92;;;15.77;;
78796;SDS011;68145;52.514;13.460;2023-04-16T10:21:43;30.33;;;16.08;;
78796;SDS011;68145;52.514;13.460;2023-04-16T10:24:09;25.73;;;15.60;;
78796;SDS011;68145;52.514;13.460;2023-04-16T10:26:36;25.55;;;16.23;;
78796;SDS011;68145;52.514;13.460;2023-04-16T10:29:03;27.05;;;16.38;;
78796;SDS011;68145;52.514;13.460;2023-04-16T10:31:31;24.35;;;16.08;;
78796;SDS011;68145;52.514;13.460;2023-04-16T10:33:57;26.98;;;16.23;;
78796;SDS011;68145;52.514;13.460;2023-04-16T10:36:24;40.15;;;23.50;;
78796;SDS011;68145;52.514;13.460;2023-04-16T10:38:51;33.45;;;19.17;;
78796;SDS011;68145;52.514;13.460;2023-04-16T10:41:21;29.17;;;17.70;;
78796;SDS011;68145;52.514;13.460;2023-04-16T10:43:48;31.17;;;17.70;;
78796;SDS011;68145;52.514;13.460;2023-04-16T10:46:34;28.98;;;18.52;;
78796;SDS011;68145;52.514;13.460;2023-04-16T10:49:11;36.60;;;20.58;;
78796;SDS011;68145;52.514;13.460;2023-04-16T10:51:37;27.58;;;17.13;;
78796;SDS011;68145;52.514;13.460;2023-04-16T10:56:33;24.27;;;15.40;;
78796;SDS011;68145;52.514;13.460;2023-04-16T10:59:00;29.70;;;17.80;;
78796;SDS011;68145;52.514;13.460;2023-04-16T11:01:30;27.65;;;17.60;;
78796;SDS011;68145;52.514;13.460;2023-04-16T11:04:00;28.70;;;18.73;;
78796;SDS011;68145;52.514;13.460;2023-04-16T11:06:26;27.35;;;17.23;;
78796;SDS011;68145;52.514;13.460;2023-04-16T11:08:53;27.50;;;17.80;;
78796;SDS011;68145;52.514;13.460;2023-04-16T11:11:19;25.63;;;16.58;;
78796;SDS011;68145;52.514;13.460;2023-04-16T11:13:46;22.70;;;15.98;;
78796;SDS011;68145;52.514;13.460;2023-04-16T11:16:12;23.88;;;15.77;;
78796;SDS011;68145;52.514;13.460;2023-04-16T11:18:38;22.80;;;14.82;;
78796;SDS011;68145;52.514;13.460;2023-04-16T11:21:08;21.63;;;15.35;;
78796;SDS011;68145;52.514;13.460;2023-04-16T11:23:45;19.80;;;13.55;;
78796;SDS011;68145;52.514;13.460;2023-04-16T11:26:27;19.95;;;14.77;;
78796;SDS011;68145;52.514;13.460;2023-04-16T11:28:55;21.95;;;14.48;;
78796;SDS011;68145;52.514;13.460;2023-04-16T11:31:22;24.55;;;15.60;;
78796;SDS011;68145;52.514;13.460;2023-04-16T11:33:48;23.45;;;15.77;;
78796;SDS011;68145;52.514;13.460;2023-04-16T11:36:14;21.33;;;15.90;;
78796;SDS011;68145;52.514;13.460;2023-04-16T11:38:41;21.40;;;15.25;;
78796;SDS011;68145;52.514;13.460;2023-04-16T11:41:07;21.92;;;13.07;;
78796;SDS011;68145;52.514;13.460;2023-04-16T11:43:33;20.33;;;15.13;;
78796;SDS011;68145;52.514;13.460;2023-04-16T11:48:44;20.50;;;14.60;;
78796;SDS011;68145;52.514;13.460;2023-04-16T11:51:11;19.40;;;13.82;;
78796;SDS011;68145;52.514;13.460;2023-04-16T11:56:32;17.42;;;13.43;;
78796;SDS011;68145;52.514;13.460;2023-04-16T11:59:05;18.23;;;13.95;;
78796;SDS011;68145;52.514;13.460;2023-04-16T12:01:32;19.05;;;14.00;;
78796;SDS011;68145;52.514;13.460;2023-04-16T12:04:02;20.45;;;14.13;;
78796;SDS011;68145;52.514;13.460;2023-04-16T12:06:28;19.42;;;13.63;;
78796;SDS011;68145;52.514;13.460;2023-04-16T12:08:56;19.10;;;13.88;;
78796;SDS011;68145;52.514;13.460;2023-04-16T12:11:40;19.40;;;13.73;;
78796;SDS011;68145;52.514;13.460;2023-04-16T12:14:07;22.30;;;15.27;;
78796;SDS011;68145;52.514;13.460;2023-04-16T12:16:33;19.17;;;14.23;;
78796;SDS011;68145;52.514;13.460;2023-04-16T12:19:00;18.23;;;13.75;;
78796;SDS011;68145;52.514;13.460;2023-04-16T12:24:06;16.38;;;13.50;;
78796;SDS011;68145;52.514;13.460;2023-04-16T12:29:18;17.95;;;14.40;;
78796;SDS011;68145;52.514;13.460;2023-04-16T12:31:44;17.38;;;13.70;;
78796;SDS011;68145;52.514;13.460;2023-04-16T12:34:11;20.95;;;13.73;;
78796;SDS011;68145;52.514;13.460;2023-04-16T12:36:39;17.85;;;13.77;;
78796;SDS011;68145;52.514;13.460;2023-04-16T12:39:05;16.80;;;13.02;;
78796;SDS011;68145;52.514;13.460;2023-04-16T12:41:31;15.15;;;11.65;;
78796;SDS011;68145;52.514;13.460;2023-04-16T12:44:04;17.75;;;13.57;;
78796;SDS011;68145;52.514;13.460;2023-04-16T12:46:38;19.17;;;12.55;;
78796;SDS011;68145;52.514;13.460;2023-04-16T12:49:04;19.60;;;13.70;;
78796;SDS011;68145;52.514;13.460;2023-04-16T12:51:31;18.20;;;12.13;;
78796;SDS011;68145;52.514;13.460;2023-04-16T12:53:57;16.63;;;12.13;;
78796;SDS011;68145;52.514;13.460;2023-04-16T12:56:23;16.08;;;11.77;;
78796;SDS011;68145;52.514;13.460;2023-04-16T12:58:49;17.70;;;12.77;;
78796;SDS011;68145;52.514;13.460;2023-04-16T13:01:17;16.98;;;11.65;;
78796;SDS011;68145;52.514;13.460;2023-04-16T13:03:43;14.95;;;10.63;;
78796;SDS011;68145;52.514;13.460;2023-04-16T13:06:09;14.77;;;10.98;;
78796;SDS011;68145;52.514;13.460;2023-04-16T13:08:35;14.07;;;10.70;;
78796;SDS011;68145;52.514;13.460;2023-04-16T13:11:02;13.40;;;10.43;;
78796;SDS011;68145;52.514;13.460;2023-04-16T13:13:28;15.05;;;10.70;;
78796;SDS011;68145;52.514;13.460;2023-04-16T13:15:54;13.55;;;10.57;;
78796;SDS011;68145;52.514;13.460;2023-04-16T13:18:20;12.65;;;10.25;;
78796;SDS011;68145;52.514;13.460;2023-04-16T13:20:47;15.02;;;11.18;;
78796;SDS011;68145;52.514;13.460;2023-04-16T13:23:13;15.82;;;11.13;;
78796;SDS011;68145;52.514;13.460;2023-04-16T13:25:39;15.95;;;10.82;;
78796;SDS011;68145;52.514;13.460;2023-04-16T13:28:05;15.38;;;10.77;;
78796;SDS011;68145;52.514;13.460;2023-04-16T13:30:31;12.85;;;9.63;;
78796;SDS011;68145;52.514;13.460;2023-04-16T13:32:58;11.88;;;9.32;;
78796;SDS011;68145;52.514;13.460;2023-04-16T13:35:24;15.93;;;11.23;;
78796;SDS011;68145;52.514;13.460;2023-04-16T13:37:51;19.92;;;13.85;;
78796;SDS011;68145;52.514;13.460;2023-04-16T13:40:17;16.80;;;11.55;;
78796;SDS011;68145;52.514;13.460;2023-04-16T13:42:43;15.45;;;11.45;;
78796;SDS011;68145;52.514;13.460;2023-04-16T13:45:09;13.88;;;9.55;;
78796;SDS011;68145;52.514;13.460;2023-04-16T13:47:37;14.25;;;10.60;;
78796;SDS011;68145;52.514;13.460;2023-04-16T13:50:03;14.73;;;9.98;;
78796;SDS011;68145;52.514;13.460;2023-04-16T13:52:29;10.85;;;8.35;;
78796;SDS011;68145;52.514;13.460;2023-04-16T13:54:55;15.68;;;11.35;;
78796;SDS011;68145;52.514;13.460;2023-04-16T13:57:21;16.42;;;11.05;;
78796;SDS011;68145;52.514;13.460;2023-04-16T13:59:48;17.63;;;12.18;;
78796;SDS011;68145;52.514;13.460;2023-04-16T14:02:14;12.60;;;9.75;;
78796;SDS011;68145;52.514;13.460;2023-04-16T14:04:40;15.30;;;10.40;;
78796;SDS011;68145;52.514;13.460;2023-04-16T14:07:06;15.65;;;10.80;;
78796;SDS011;68145;52.514;13.460;2023-04-16T14:09:32;12.40;;;9.60;;
78796;SDS011;68145;52.514;13.460;2023-04-16T14:11:58;16.23;;;10.57;;
78796;SDS011;68145;52.514;13.460;2023-04-16T14:14:24;12.68;;;10.18;;
78796;SDS011;68145;52.514;13.460;2023-04-16T14:16:52;13.93;;;10.15;;
78796;SDS011;68145;52.514;13.460;2023-04-16T14:19:19;11.65;;;9.20;;
78796;SDS011;68145;52.514;13.460;2023-04-16T14:21:45;12.73;;;9.80;;
78796;SDS011;68145;52.514;13.460;2023-04-16T14:24:14;13.27;;;10.43;;